Time;durP1;ratioP1;P1;durP2;ratioP2;P2;SDS_P1;SDS_P2;PMS_P1;PMS_P2;Temp;Humidity;BMP_temperature;BMP_pressure;BME280_temperature;BME280_humidity;BME280_pressure;Samples;Min_cycle;Max_cycle;Signal;HPM_P1;HPM_P2
2024/02/22 07:04:50;;;;;;;;;26.33;22.00;;;;;;;;5094567;27;13475;-66
2024/02/22 07:07:15;;;;;;;;;25.00;19.67;;;;;;;;5086414;28;8814;-66
2024/02/22 07:09:41;;;;;;;;;22.00;21.33;;;;;;;;5087567;28;8830;-66
2024/02/22 07:12:06;;;;;;;;;26.00;23.67;;;;;;;;5087889;28;8814;-66
2024/02/22 07:14:31;;;;;;;;;27.33;25.33;;;;;;;;5088098;28;8806;-67
2024/02/22 07:16:57;;;;;;;;;27.33;23.33;;;;;;;;5087295;28;8853;-66
2024/02/22 07:19:22;;;;;;;;;25.33;23.67;;;;;;;;5087785;28;8888;-67
2024/02/22 07:21:47;;;;;;;;;25.67;24.00;;;;;;;;5086225;28;8818;-66
2024/02/22 07:24:13;;;;;;;;;23.67;23.67;;;;;;;;5087661;28;8846;-66
2024/02/22 07:26:41;;;;;;;;;26.33;22.00;;;;;;;;5086114;28;8818;-66
2024/02/22 07:29:07;;;;;;;;;27.67;25.00;;;;;;;;5087326;28;8979;-66
2024/02/22 07:31:32;;;;;;;;;28.33;24.33;;;;;;;;5087379;28;11501;-66
2024/02/22 07:33:57;;;;;;;;;27.33;26.00;;;;;;;;5086039;28;8802;-66
2024/02/22 07:36:23;;;;;;;;;27.33;24.00;;;;;;;;5087076;28;8806;-66
2024/02/22 07:38:48;;;;;;;;;25.33;24.67;;;;;;;;5087465;28;8808;-66
2024/02/22 07:41:17;;;;;;;;;28.67;28.67;;;;;;;;5087119;28;8906;-66
2024/02/22 07:43:43;;;;;;;;;31.00;29.00;;;;;;;;5087244;28;8833;-66
2024/02/22 07:46:11;;;;;;;;;28.33;28.33;;;;;;;;5085980;28;8810;-67
2024/02/22 07:48:36;;;;;;;;;34.00;32.33;;;;;;;;5085706;28;11557;-66
2024/02/22 07:51:01;;;;;;;;;32.33;31.33;;;;;;;;5102708;28;8807;-67
2024/02/22 07:53:30;;;;;;;;;37.00;32.00;;;;;;;;5087298;28;8790;-67
2024/02/22 07:55:55;;;;;;;;;33.67;29.67;;;;;;;;5102257;28;8794;-69
2024/02/22 07:58:21;;;;;;;;;31.00;31.00;;;;;;;;5087147;28;11565;-67
2024/02/22 08:00:46;;;;;;;;;33.00;30.33;;;;;;;;5087034;28;8778;-66
2024/02/22 08:03:12;;;;;;;;;38.33;32.33;;;;;;;;5086081;28;8924;-68
2024/02/22 08:05:38;;;;;;;;;26.67;25.33;;;;;;;;5086989;28;9516;-68
2024/02/22 08:08:03;;;;;;;;;29.00;28.50;;;;;;;;5086308;28;9781;-67
2024/02/22 08:10:29;;;;;;;;;32.00;30.50;;;;;;;;5086074;28;8841;-68
2024/02/22 08:12:54;;;;;;;;;30.00;29.00;;;;;;;;5085345;28;8811;-68
2024/02/22 08:15:19;;;;;;;;;28.50;28.50;;;;;;;;5074877;28;9709;-68
2024/02/22 08:17:46;;;;;;;;;34.25;30.50;;;;;;;;5069738;28;8810;-68
2024/02/22 08:20:11;;;;;;;;;32.25;29.75;;;;;;;;5071646;28;9402;-68
2024/02/22 08:22:37;;;;;;;;;31.50;31.00;;;;;;;;5072417;28;11551;-68
2024/02/22 08:25:02;;;;;;;;;30.75;30.75;;;;;;;;5073013;28;8921;-67
2024/02/22 08:27:27;;;;;;;;;25.00;22.00;;;;;;;;5073110;28;8778;-67
2024/02/22 08:29:53;;;;;;;;;29.50;27.50;;;;;;;;5072930;28;8907;-70
2024/02/22 08:32:18;;;;;;;;;31.75;28.75;;;;;;;;5071610;28;8822;-69
2024/02/22 08:34:43;;;;;;;;;32.00;30.00;;;;;;;;5072896;28;8798;-69
2024/02/22 08:37:09;;;;;;;;;27.75;25.00;;;;;;;;5072541;28;8933;-70
2024/02/22 08:39:34;;;;;;;;;31.75;30.75;;;;;;;;5072768;28;8798;-72
2024/02/22 08:41:59;;;;;;;;;28.75;28.75;;;;;;;;5072754;28;8798;-70
2024/02/22 08:44:26;;;;;;;;;36.00;33.00;;;;;;;;5071548;28;8822;-66
2024/02/22 08:46:51;;;;;;;;;31.25;30.00;;;;;;;;5072553;28;8782;-67
2024/02/22 08:49:18;;;;;;;;;34.25;30.50;;;;;;;;5072535;28;11594;-67
2024/02/22 08:51:43;;;;;;;;;35.25;31.00;;;;;;;;5072377;28;8782;-67
2024/02/22 08:54:08;;;;;;;;;34.00;31.50;;;;;;;;5072398;28;11503;-67
2024/02/22 08:56:34;;;;;;;;;33.25;31.00;;;;;;;;5072301;28;8795;-68
2024/02/22 08:58:59;;;;;;;;;28.75;28.50;;;;;;;;5072356;28;8818;-68
2024/02/22 09:01:25;;;;;;;;;37.75;33.75;;;;;;;;5072380;28;8779;-67
2024/02/22 09:03:50;;;;;;;;;32.50;32.00;;;;;;;;5070832;28;8989;-67
2024/02/22 09:06:15;;;;;;;;;33.25;29.50;;;;;;;;5071925;28;8875;-67
2024/02/22 09:08:41;;;;;;;;;27.50;24.00;;;;;;;;5068736;28;8814;-68
2024/02/22 09:11:07;;;;;;;;;37.25;34.00;;;;;;;;5070472;28;8899;-68
2024/02/22 09:13:32;;;;;;;;;38.75;37.00;;;;;;;;5072076;28;12271;-68
2024/02/22 09:15:58;;;;;;;;;36.25;31.50;;;;;;;;5070590;28;8814;-68
2024/02/22 09:18:23;;;;;;;;;33.50;33.00;;;;;;;;5068939;28;8837;-68
2024/02/22 09:20:49;;;;;;;;;29.25;25.25;;;;;;;;5070604;28;8905;-68
2024/02/22 09:23:14;;;;;;;;;29.75;27.75;;;;;;;;5069087;28;8818;-68
2024/02/22 09:25:40;;;;;;;;;25.50;24.25;;;;;;;;5070331;28;8790;-68
2024/02/22 09:28:05;;;;;;;;;29.50;27.50;;;;;;;;5069797;28;9579;-68
2024/02/22 09:30:31;;;;;;;;;24.00;22.50;;;;;;;;5071269;28;8824;-68
2024/02/22 09:32:57;;;;;;;;;23.00;22.00;;;;;;;;5071610;28;8838;-68
2024/02/22 09:35:22;;;;;;;;;22.25;18.75;;;;;;;;5071755;28;8825;-68
2024/02/22 09:37:47;;;;;;;;;21.75;19.25;;;;;;;;5071616;28;8798;-68
2024/02/22 09:40:13;;;;;;;;;24.75;22.75;;;;;;;;5071671;28;8775;-68
2024/02/22 09:42:38;;;;;;;;;21.75;19.25;;;;;;;;5071576;28;8956;-68
2024/02/22 09:45:05;;;;;;;;;28.25;22.00;;;;;;;;5071570;28;8783;-68
2024/02/22 09:47:30;;;;;;;;;24.50;23.00;;;;;;;;5071287;28;8778;-68
2024/02/22 09:49:56;;;;;;;;;25.00;21.50;;;;;;;;5071375;28;11529;-68
2024/02/22 09:52:21;;;;;;;;;20.75;19.00;;;;;;;;5071376;28;8794;-68
2024/02/22 09:54:47;;;;;;;;;21.50;19.75;;;;;;;;5086886;28;8896;-67
2024/02/22 09:57:13;;;;;;;;;15.25;15.25;;;;;;;;5071324;28;8813;-65
2024/02/22 09:59:43;;;;;;;;;12.75;12.75;;;;;;;;5069924;28;11523;-68
2024/02/22 10:02:10;;;;;;;;;12.25;11.25;;;;;;;;5071253;28;8779;-68
2024/02/22 10:04:36;;;;;;;;;6.00;6.00;;;;;;;;5071170;28;11423;-68
2024/02/22 10:07:01;;;;;;;;;9.75;7.50;;;;;;;;5070995;28;11385;-68
2024/02/22 10:09:27;;;;;;;;;4.00;4.00;;;;;;;;5071516;28;8786;-68
2024/02/22 10:11:53;;;;;;;;;10.25;9.75;;;;;;;;5071268;28;8795;-68
2024/02/22 10:14:18;;;;;;;;;7.00;4.75;;;;;;;;5071279;28;8795;-68
2024/02/22 10:16:45;;;;;;;;;0.00;0.00;;;;;;;;5071652;28;8817;-68
2024/02/22 10:19:11;;;;;;;;;4.25;4.25;;;;;;;;5085959;28;9563;-68
2024/02/22 10:21:37;;;;;;;;;5.00;4.00;;;;;;;;5050918;28;11419;-66
2024/02/22 10:24:02;;;;;;;;;4.00;4.00;;;;;;;;5069964;28;8818;-67
2024/02/22 10:26:28;;;;;;;;;6.25;6.25;;;;;;;;5069309;28;8798;-66
2024/02/22 10:29:04;;;;;;;;;9.25;6.00;;;;;;;;5070669;28;8790;-66
2024/02/22 10:31:29;;;;;;;;;4.00;4.00;;;;;;;;5069756;28;8818;-67
2024/02/22 10:33:57;;;;;;;;;5.00;4.00;;;;;;;;5070444;28;11067;-66
2024/02/22 10:36:23;;;;;;;;;4.50;4.00;;;;;;;;5070970;28;8787;-67
2024/02/22 10:38:48;;;;;;;;;3.00;3.00;;;;;;;;5070405;28;11256;-67
2024/02/22 10:41:14;;;;;;;;;6.25;3.75;;;;;;;;5069370;28;8803;-67
2024/02/22 10:43:43;;;;;;;;;7.75;5.00;;;;;;;;5070720;28;8816;-67
2024/02/22 10:46:09;;;;;;;;;4.00;4.00;;;;;;;;5070735;28;8782;-67
2024/02/22 10:48:35;;;;;;;;;4.75;4.75;;;;;;;;5070195;28;11408;-67
2024/02/22 10:51:02;;;;;;;;;9.75;8.00;;;;;;;;5070544;28;11535;-67
2024/02/22 10:53:30;;;;;;;;;10.75;8.00;;;;;;;;5070356;28;11564;-67
2024/02/22 10:55:58;;;;;;;;;9.00;8.00;;;;;;;;5070370;28;11400;-67
2024/02/22 10:58:25;;;;;;;;;8.75;6.00;;;;;;;;5070559;28;11396;-67
2024/02/22 11:00:51;;;;;;;;;10.00;9.00;;;;;;;;5070268;28;11475;-68
2024/02/22 11:03:17;;;;;;;;;7.00;7.00;;;;;;;;5070059;28;11479;-67
2024/02/22 11:05:45;;;;;;;;;8.75;8.75;;;;;;;;5070319;28;8798;-67
2024/02/22 11:08:18;;;;;;;;;8.25;8.00;;;;;;;;5070582;28;9641;-68
2024/02/22 11:10:44;;;;;;;;;5.50;5.50;;;;;;;;5070375;28;11465;-67
2024/02/22 11:13:11;;;;;;;;;7.25;6.00;;;;;;;;5070196;28;11452;-67
2024/02/22 11:15:37;;;;;;;;;6.50;6.00;;;;;;;;5070115;28;8795;-67
2024/02/22 11:18:03;;;;;;;;;9.00;8.75;;;;;;;;5070579;28;11436;-67
2024/02/22 11:20:32;;;;;;;;;4.50;4.00;;;;;;;;5085832;28;8806;-67
2024/02/22 11:22:58;;;;;;;;;9.50;9.50;;;;;;;;5069882;28;12267;-67
2024/02/22 11:25:23;;;;;;;;;9.00;8.00;;;;;;;;5070088;28;11448;-67
2024/02/22 11:28:00;;;;;;;;;10.75;9.75;;;;;;;;5070195;28;8774;-67
2024/02/22 11:30:27;;;;;;;;;11.75;10.75;;;;;;;;5070130;28;8787;-67
2024/02/22 11:32:52;;;;;;;;;10.50;10.00;;;;;;;;5069937;28;11527;-67
2024/02/22 11:35:19;;;;;;;;;8.25;8.25;;;;;;;;5069977;28;11476;-67
2024/02/22 11:37:44;;;;;;;;;12.25;11.00;;;;;;;;5070377;28;8798;-67
2024/02/22 11:40:09;;;;;;;;;15.00;11.75;;;;;;;;5070025;28;11512;-68
2024/02/22 11:42:35;;;;;;;;;15.00;11.00;;;;;;;;5068656;28;8794;-66
2024/02/22 11:45:12;;;;;;;;;13.50;12.00;;;;;;;;5069846;28;8795;-66
2024/02/22 11:47:39;;;;;;;;;12.00;11.00;;;;;;;;5068532;28;8814;-66
2024/02/22 11:50:05;;;;;;;;;11.75;9.00;;;;;;;;5086565;28;11524;-66
2024/02/22 11:52:31;;;;;;;;;11.00;11.00;;;;;;;;5089255;28;12018;-67
2024/02/22 11:54:56;;;;;;;;;10.00;10.00;;;;;;;;5073680;28;11501;-66
2024/02/22 11:57:21;;;;;;;;;13.25;12.00;;;;;;;;5089156;28;9640;-66
2024/02/22 11:59:46;;;;;;;;;10.00;9.00;;;;;;;;5073641;28;8799;-67
2024/02/22 12:02:12;;;;;;;;;11.75;11.75;;;;;;;;5073335;28;8802;-67
2024/02/22 12:04:38;;;;;;;;;8.00;8.00;;;;;;;;5073554;28;8906;-67
2024/02/22 12:07:03;;;;;;;;;10.00;10.00;;;;;;;;5073313;28;11447;-67
2024/02/22 12:09:29;;;;;;;;;12.00;12.00;;;;;;;;5073396;28;8790;-67
2024/02/22 12:11:55;;;;;;;;;14.50;13.00;;;;;;;;5073273;28;8802;-67
2024/02/22 12:14:20;;;;;;;;;10.75;10.50;;;;;;;;5071839;28;8810;-67
2024/02/22 12:16:46;;;;;;;;;10.00;8.75;;;;;;;;5073773;28;8787;-67
2024/02/22 12:19:20;;;;;;;;;11.00;10.00;;;;;;;;5071830;28;8915;-67
2024/02/22 12:21:46;;;;;;;;;13.00;10.00;;;;;;;;5073074;28;11457;-66
2024/02/22 12:24:12;;;;;;;;;17.50;12.00;;;;;;;;5072630;28;11494;-67
2024/02/22 12:26:37;;;;;;;;;11.50;11.50;;;;;;;;5073016;28;11617;-67
2024/02/22 12:29:02;;;;;;;;;11.25;11.00;;;;;;;;5071291;28;8818;-68
2024/02/22 12:31:28;;;;;;;;;10.25;10.25;;;;;;;;5073139;28;8817;-67
2024/02/22 12:33:54;;;;;;;;;12.75;11.50;;;;;;;;5072661;28;8829;-67
2024/02/22 12:36:21;;;;;;;;;11.75;10.50;;;;;;;;5071596;28;8786;-68
2024/02/22 12:38:46;;;;;;;;;15.50;11.75;;;;;;;;5072932;28;8816;-67
2024/02/22 12:41:12;;;;;;;;;11.25;11.25;;;;;;;;5072720;28;11586;-67
2024/02/22 12:43:39;;;;;;;;;11.00;11.00;;;;;;;;5072908;28;8809;-67
2024/02/22 12:46:05;;;;;;;;;11.25;10.50;;;;;;;;5071320;28;11569;-67
2024/02/22 12:48:31;;;;;;;;;11.75;10.25;;;;;;;;5072542;28;11477;-67
2024/02/22 12:50:56;;;;;;;;;11.00;10.50;;;;;;;;5071270;28;11595;-67
2024/02/22 12:53:22;;;;;;;;;9.00;9.00;;;;;;;;5072627;28;8818;-67
2024/02/22 12:55:47;;;;;;;;;10.75;10.75;;;;;;;;5072647;28;8779;-67
2024/02/22 12:58:12;;;;;;;;;10.00;10.00;;;;;;;;5072397;28;8787;-68
2024/02/22 16:27:46;;;;;;;;;13.25;13.25;;;;;;;;5075774;27;13507;-65
2024/02/22 16:30:11;;;;;;;;;13.75;13.00;;;;;;;;5068213;28;11544;-64
2024/02/22 16:32:37;;;;;;;;;11.75;9.75;;;;;;;;5079750;28;8874;-66
2024/02/22 16:35:02;;;;;;;;;11.50;10.75;;;;;;;;5085848;28;8811;-67
2024/02/22 16:37:27;;;;;;;;;8.00;6.25;;;;;;;;5087791;28;8788;-64
2024/02/22 16:39:53;;;;;;;;;12.00;10.75;;;;;;;;5085447;28;8838;-67
2024/02/22 16:42:18;;;;;;;;;7.75;7.75;;;;;;;;5087026;28;8812;-68
2024/02/22 16:44:44;;;;;;;;;10.00;10.00;;;;;;;;5087593;28;8796;-68
2024/02/22 16:47:11;;;;;;;;;9.00;8.25;;;;;;;;5087267;28;8927;-67
2024/02/22 16:49:39;;;;;;;;;11.75;10.75;;;;;;;;5079159;28;8815;-66
2024/02/22 16:52:06;;;;;;;;;10.00;8.50;;;;;;;;5076802;28;11508;-67
2024/02/22 16:54:34;;;;;;;;;10.50;10.50;;;;;;;;5077801;28;11449;-66
2024/02/22 16:57:00;;;;;;;;;12.00;9.50;;;;;;;;5066970;28;11596;-67
2024/02/22 16:59:25;;;;;;;;;13.75;11.00;;;;;;;;5076328;28;11578;-67
2024/02/22 17:01:50;;;;;;;;;10.25;9.00;;;;;;;;5083721;28;8886;-64
2024/02/22 17:04:16;;;;;;;;;8.00;8.00;;;;;;;;5086522;28;8821;-64
2024/02/22 17:06:41;;;;;;;;;9.00;7.75;;;;;;;;5086998;28;8788;-65
2024/02/22 17:09:06;;;;;;;;;11.00;9.00;;;;;;;;5084911;28;9059;-65
2024/02/22 17:11:31;;;;;;;;;11.00;9.00;;;;;;;;5085318;28;8780;-64
2024/02/22 17:13:57;;;;;;;;;9.00;9.00;;;;;;;;5086019;28;8835;-66
2024/02/22 17:16:22;;;;;;;;;10.00;10.00;;;;;;;;5086809;28;8828;-65
2024/02/22 17:18:47;;;;;;;;;8.00;7.50;;;;;;;;5084218;28;8796;-66
2024/02/22 17:21:12;;;;;;;;;10.25;5.75;;;;;;;;5086134;28;8784;-67
2024/02/22 17:23:38;;;;;;;;;10.50;9.75;;;;;;;;5085610;28;8784;-66
2024/02/22 17:26:03;;;;;;;;;8.25;8.25;;;;;;;;5085633;28;8804;-65
2024/02/22 17:28:29;;;;;;;;;9.25;9.00;;;;;;;;5083522;28;10152;-67
2024/02/22 17:30:54;;;;;;;;;7.50;7.50;;;;;;;;5085830;28;8796;-67
2024/02/22 17:33:21;;;;;;;;;10.75;9.50;;;;;;;;5083761;28;8819;-67
2024/02/22 17:35:46;;;;;;;;;10.00;10.00;;;;;;;;5082044;28;8858;-67
2024/02/22 17:38:12;;;;;;;;;10.50;10.25;;;;;;;;5071569;28;11463;-67
2024/02/22 17:40:38;;;;;;;;;15.75;11.75;;;;;;;;5066393;28;8784;-67
2024/02/22 17:43:04;;;;;;;;;16.25;13.50;;;;;;;;5062864;28;9518;-67
2024/02/22 17:45:29;;;;;;;;;10.25;10.00;;;;;;;;5048871;28;11506;-65
2024/02/22 17:47:56;;;;;;;;;9.50;8.00;;;;;;;;5064005;28;8831;-66
2024/02/22 17:50:22;;;;;;;;;7.75;7.00;;;;;;;;5062172;28;8807;-69
2024/02/22 17:52:47;;;;;;;;;8.50;7.00;;;;;;;;5065941;28;11521;-64
2024/02/22 17:55:13;;;;;;;;;7.50;6.00;;;;;;;;5045624;28;8806;-65
2024/02/22 17:57:39;;;;;;;;;5.00;5.00;;;;;;;;5051984;28;8873;-65
2024/02/22 18:00:05;;;;;;;;;8.50;8.00;;;;;;;;5063471;28;9565;-65
2024/02/22 18:02:30;;;;;;;;;9.50;8.00;;;;;;;;5052759;28;11512;-65
2024/02/22 18:04:55;;;;;;;;;9.00;9.00;;;;;;;;5063209;28;9384;-67
2024/02/22 18:07:21;;;;;;;;;8.00;6.50;;;;;;;;5054619;28;8881;-64
2024/02/22 18:09:46;;;;;;;;;8.75;6.25;;;;;;;;5071394;28;8838;-66
2024/02/22 18:12:11;;;;;;;;;9.00;8.25;;;;;;;;5072284;28;9570;-66
2024/02/22 18:14:37;;;;;;;;;12.00;10.00;;;;;;;;5071879;28;8808;-65
2024/02/22 18:17:04;;;;;;;;;9.25;9.25;;;;;;;;5054266;28;8921;-65
2024/02/22 18:19:29;;;;;;;;;7.00;7.00;;;;;;;;5070520;28;8788;-65
2024/02/22 18:21:55;;;;;;;;;8.00;6.25;;;;;;;;5071794;28;12297;-64
2024/02/22 18:24:20;;;;;;;;;10.00;8.00;;;;;;;;5071799;28;8827;-64
2024/02/22 18:26:46;;;;;;;;;9.25;8.50;;;;;;;;5071920;28;8927;-64
2024/02/22 18:29:11;;;;;;;;;9.50;9.50;;;;;;;;5072056;28;8818;-69
2024/02/22 18:31:36;;;;;;;;;12.00;9.00;;;;;;;;5069858;28;8824;-69
2024/02/22 18:34:01;;;;;;;;;9.75;9.75;;;;;;;;5053748;28;8958;-67
2024/02/22 18:36:28;;;;;;;;;12.00;9.00;;;;;;;;5054000;28;8951;-67
2024/02/22 18:38:53;;;;;;;;;11.25;8.50;;;;;;;;5054003;28;8804;-67
2024/02/22 18:41:18;;;;;;;;;12.00;10.00;;;;;;;;5069206;28;11513;-66
2024/02/22 18:43:43;;;;;;;;;9.75;9.00;;;;;;;;5071594;28;8800;-66
2024/02/22 18:46:11;;;;;;;;;18.00;16.50;;;;;;;;5071082;28;8822;-64
2024/02/22 18:48:37;;;;;;;;;10.25;10.25;;;;;;;;5053233;28;8812;-64
2024/02/22 18:51:02;;;;;;;;;9.75;9.00;;;;;;;;5068540;28;11534;-65
2024/02/22 18:53:29;;;;;;;;;9.75;9.75;;;;;;;;5071693;28;12177;-65
2024/02/22 18:55:58;;;;;;;;;12.75;10.00;;;;;;;;5071463;28;8828;-66
2024/02/22 18:58:24;;;;;;;;;5.00;4.00;;;;;;;;5069514;28;11479;-68
2024/02/22 19:00:49;;;;;;;;;5.50;5.00;;;;;;;;5062378;28;12179;-67
2024/02/22 19:03:16;;;;;;;;;29.25;24.50;;;;;;;;5058564;28;8816;-68
2024/02/22 19:05:42;;;;;;;;;11.50;8.50;;;;;;;;5055403;28;8787;-67
2024/02/22 19:08:08;;;;;;;;;8.00;6.00;;;;;;;;5064249;28;11449;-81
2024/02/22 19:10:33;;;;;;;;;11.25;9.75;;;;;;;;5052822;28;11603;-79
2024/02/22 19:12:59;;;;;;;;;8.75;7.00;;;;;;;;5070870;28;8800;-74
2024/02/22 19:15:24;;;;;;;;;8.00;7.50;;;;;;;;5070668;28;8804;-76
2024/02/22 19:17:49;;;;;;;;;6.00;5.50;;;;;;;;5069225;28;9529;-74
2024/02/22 19:20:15;;;;;;;;;6.00;6.00;;;;;;;;5070707;28;8816;-74
2024/02/22 19:22:41;;;;;;;;;8.75;8.75;;;;;;;;5069551;28;8812;-76
2024/02/22 19:25:09;;;;;;;;;6.25;6.25;;;;;;;;5071072;28;8780;-78
2024/02/22 19:27:35;;;;;;;;;7.50;7.50;;;;;;;;5070566;28;11447;-71
2024/02/22 19:30:01;;;;;;;;;8.00;8.00;;;;;;;;5070956;28;11473;-66
2024/02/22 19:32:26;;;;;;;;;12.50;8.00;;;;;;;;5069134;28;8816;-68
2024/02/22 19:34:52;;;;;;;;;6.00;6.00;;;;;;;;5070748;28;11424;-69
2024/02/22 19:37:17;;;;;;;;;8.00;8.00;;;;;;;;5070862;28;8867;-68
2024/02/22 19:39:42;;;;;;;;;6.00;6.00;;;;;;;;5070838;28;8931;-68
2024/02/22 19:42:08;;;;;;;;;6.50;6.50;;;;;;;;5070978;28;8789;-68
2024/02/22 19:44:33;;;;;;;;;8.00;6.00;;;;;;;;5070931;28;8784;-68
2024/02/22 19:46:58;;;;;;;;;6.25;5.25;;;;;;;;5070772;28;8800;-69
2024/02/22 19:49:24;;;;;;;;;5.25;5.00;;;;;;;;5070667;28;8780;-67
2024/02/22 19:51:50;;;;;;;;;5.75;5.75;;;;;;;;5052863;28;9521;-67
2024/02/22 19:54:15;;;;;;;;;7.00;4.50;;;;;;;;5070786;28;9502;-68
2024/02/22 19:56:43;;;;;;;;;3.00;3.00;;;;;;;;5070401;28;8953;-67
2024/02/22 19:59:09;;;;;;;;;3.00;3.00;;;;;;;;5070701;28;8788;-68
2024/02/22 20:01:34;;;;;;;;;6.00;5.00;;;;;;;;5069537;28;12064;-68
2024/02/22 20:03:59;;;;;;;;;2.25;2.25;;;;;;;;5047816;28;9498;-67
2024/02/22 20:06:25;;;;;;;;;4.00;4.00;;;;;;;;5051763;28;8804;-67
2024/02/22 20:08:54;;;;;;;;;14.00;12.75;;;;;;;;5051675;28;8820;-68
2024/02/22 20:11:20;;;;;;;;;9.00;6.75;;;;;;;;5069601;28;8788;-68
2024/02/22 20:13:50;;;;;;;;;13.00;10.50;;;;;;;;5069918;28;11509;-67
2024/02/22 20:16:15;;;;;;;;;3.50;3.50;;;;;;;;5050917;28;9630;-68
2024/02/22 20:18:40;;;;;;;;;3.00;3.00;;;;;;;;5068610;28;11407;-67
2024/02/22 20:21:05;;;;;;;;;6.50;5.00;;;;;;;;5051171;28;8808;-67
2024/02/22 20:23:31;;;;;;;;;6.00;5.00;;;;;;;;5069081;28;8792;-67
2024/02/22 20:25:58;;;;;;;;;5.25;5.25;;;;;;;;5050165;28;9614;-67
2024/02/22 20:28:24;;;;;;;;;3.50;3.50;;;;;;;;5066469;28;8810;-67
2024/02/22 20:30:50;;;;;;;;;4.00;4.00;;;;;;;;5050031;28;11522;-66
2024/02/22 20:33:16;;;;;;;;;6.75;6.00;;;;;;;;5031955;28;11573;-67
2024/02/22 20:35:41;;;;;;;;;5.25;3.50;;;;;;;;5049901;28;8894;-67
2024/02/22 20:38:12;;;;;;;;;8.75;4.00;;;;;;;;5049927;28;8794;-70
2024/02/22 20:40:37;;;;;;;;;5.00;3.00;;;;;;;;5050019;28;8956;-66
2024/02/22 20:43:02;;;;;;;;;5.50;5.00;;;;;;;;5050034;28;12270;-67
2024/02/22 20:45:28;;;;;;;;;6.00;3.50;;;;;;;;5050130;28;8891;-72
2024/02/22 20:47:53;;;;;;;;;3.00;3.00;;;;;;;;5062234;28;8903;-69
2024/02/22 20:50:19;;;;;;;;;6.00;5.00;;;;;;;;5068817;28;8819;-69
2024/02/22 20:52:46;;;;;;;;;4.00;4.00;;;;;;;;5068981;28;8882;-70
2024/02/22 20:55:11;;;;;;;;;5.00;5.00;;;;;;;;5050558;28;12198;-69
2024/02/22 20:57:37;;;;;;;;;3.50;3.50;;;;;;;;5069317;28;11569;-71
2024/02/22 21:00:04;;;;;;;;;3.00;3.00;;;;;;;;5069484;28;8780;-67
2024/02/22 21:02:29;;;;;;;;;4.75;3.50;;;;;;;;5051437;28;8804;-67
2024/02/22 21:04:55;;;;;;;;;3.00;3.00;;;;;;;;5064345;28;11507;-67
2024/02/22 21:07:20;;;;;;;;;6.00;4.00;;;;;;;;5051160;28;8827;-72
2024/02/22 21:09:46;;;;;;;;;8.00;4.00;;;;;;;;5069465;28;8769;-71
2024/02/22 21:12:11;;;;;;;;;6.75;3.00;;;;;;;;5069554;28;8804;-70
2024/02/22 21:14:36;;;;;;;;;5.00;3.00;;;;;;;;5073113;28;8804;-71
2024/02/22 21:17:02;;;;;;;;;5.00;3.00;;;;;;;;5055137;28;8817;-71
2024/02/22 21:19:27;;;;;;;;;3.00;3.00;;;;;;;;5055072;28;9655;-71
2024/02/22 21:21:52;;;;;;;;;3.50;3.50;;;;;;;;5055100;28;8827;-71
2024/02/22 21:24:18;;;;;;;;;4.50;3.00;;;;;;;;5072745;28;8822;-71
2024/02/22 21:26:43;;;;;;;;;9.00;6.00;;;;;;;;5073459;28;8831;-72
2024/02/22 21:29:09;;;;;;;;;6.00;3.00;;;;;;;;5055303;28;8800;-72
2024/02/22 21:31:34;;;;;;;;;5.00;4.50;;;;;;;;5073367;28;8827;-71
2024/02/22 21:34:01;;;;;;;;;5.50;5.50;;;;;;;;5055328;28;8834;-73
2024/02/22 21:36:27;;;;;;;;;8.50;5.00;;;;;;;;5054462;28;8987;-72
2024/02/22 21:38:54;;;;;;;;;6.00;5.00;;;;;;;;5052328;28;11558;-73
2024/02/22 21:41:20;;;;;;;;;5.00;5.00;;;;;;;;5047285;28;9671;-72
2024/02/22 21:43:45;;;;;;;;;8.50;6.50;;;;;;;;5053081;28;11562;-73
2024/02/22 21:46:10;;;;;;;;;6.75;6.75;;;;;;;;5052948;28;8917;-73
2024/02/22 21:48:35;;;;;;;;;19.25;15.25;;;;;;;;5069131;28;8855;-73
2024/02/22 21:51:05;;;;;;;;;6.25;5.50;;;;;;;;5063805;28;8799;-73
2024/02/22 21:53:31;;;;;;;;;5.00;5.00;;;;;;;;5052881;28;9484;-72
2024/02/22 21:55:56;;;;;;;;;5.00;5.00;;;;;;;;5034842;28;11567;-73
2024/02/22 21:58:21;;;;;;;;;4.50;3.00;;;;;;;;5052724;28;11403;-73
2024/02/22 22:00:47;;;;;;;;;5.00;5.00;;;;;;;;5052927;28;8810;-73
2024/02/22 22:03:12;;;;;;;;;3.00;3.00;;;;;;;;5052804;28;8799;-73
2024/02/22 22:05:38;;;;;;;;;5.00;5.00;;;;;;;;5054927;28;8818;-72
2024/02/22 22:08:04;;;;;;;;;3.00;3.00;;;;;;;;5045808;28;8847;-73
2024/02/22 22:10:29;;;;;;;;;5.75;5.25;;;;;;;;5052673;28;8817;-72
2024/02/22 22:12:54;;;;;;;;;5.25;5.25;;;;;;;;5052543;28;8787;-72
2024/02/22 22:15:19;;;;;;;;;4.00;3.50;;;;;;;;5052496;28;8786;-72
2024/02/22 22:17:45;;;;;;;;;4.00;3.00;;;;;;;;5064004;28;8828;-72
2024/02/22 22:20:11;;;;;;;;;6.25;4.50;;;;;;;;5054319;28;8808;-72
2024/02/22 22:22:36;;;;;;;;;2.00;2.00;;;;;;;;5054483;28;8835;-72
2024/02/22 22:25:01;;;;;;;;;7.50;6.25;;;;;;;;5072052;28;8788;-72
2024/02/22 22:27:27;;;;;;;;;6.50;4.00;;;;;;;;5072201;28;8858;-72
2024/02/22 22:29:52;;;;;;;;;9.25;9.00;;;;;;;;5072389;28;8879;-72
2024/02/22 22:32:20;;;;;;;;;4.50;4.50;;;;;;;;5072290;28;8823;-72
2024/02/22 22:34:46;;;;;;;;;6.00;5.00;;;;;;;;5071924;28;8781;-73
2024/02/22 22:37:11;;;;;;;;;6.00;6.00;;;;;;;;5071860;28;12327;-73
2024/02/22 22:39:36;;;;;;;;;5.25;5.25;;;;;;;;5053840;28;8833;-73
2024/02/22 22:42:02;;;;;;;;;9.00;6.75;;;;;;;;5072159;28;8815;-72
2024/02/22 22:44:28;;;;;;;;;5.00;5.00;;;;;;;;5071996;28;8823;-73
2024/02/22 22:46:54;;;;;;;;;6.00;6.00;;;;;;;;5071905;28;8801;-70
2024/02/22 22:49:19;;;;;;;;;6.00;6.00;;;;;;;;5071680;28;11524;-71
2024/02/22 22:51:46;;;;;;;;;8.00;5.00;;;;;;;;5071388;28;8831;-71
2024/02/22 22:54:11;;;;;;;;;7.00;6.00;;;;;;;;5071218;28;9616;-73
2024/02/22 22:56:36;;;;;;;;;5.00;4.00;;;;;;;;5053845;28;11466;-71
2024/02/22 22:59:01;;;;;;;;;4.50;3.00;;;;;;;;5053968;28;8788;-68
2024/02/22 23:01:27;;;;;;;;;5.00;5.00;;;;;;;;5071784;28;8796;-73
2024/02/22 23:03:52;;;;;;;;;5.50;4.50;;;;;;;;5071674;28;8792;-70
2024/02/22 23:06:17;;;;;;;;;6.50;5.00;;;;;;;;5070205;28;8788;-69
2024/02/22 23:08:43;;;;;;;;;6.00;3.00;;;;;;;;5045384;28;8823;-69
2024/02/22 23:11:09;;;;;;;;;6.25;4.25;;;;;;;;5060447;28;8787;-69
2024/02/22 23:13:35;;;;;;;;;5.50;5.50;;;;;;;;5051771;28;8806;-68
